Time;durP1;ratioP1;P1;durP2;ratioP2;P2;SDS_P1;SDS_P2;PMS_P1;PMS_P2;Temp;Humidity;BMP_temperature;BMP_pressure;BME280_temperature;BME280_humidity;BME280_pressure;Samples;Min_cycle;Max_cycle;Signal;HPM_P1;HPM_P2
2021/10/07 00:01:39;;;;;;;12.15;5.07;;;;;;;;;;5072382;28;20024;-86
2021/10/07 00:04:04;;;;;;;8.73;3.80;;;;;;;;;;5054919;28;20036;-87
2021/10/07 00:06:29;;;;;;;13.50;4.20;;;;;;;;;;5054610;28;20021;-86
2021/10/07 00:08:55;;;;;;;6.75;2.92;;;;;;;;;;5054182;28;20027;-87
2021/10/07 00:11:20;;;;;;;9.45;2.80;;;;;;;;;;5072283;28;20021;-87
2021/10/07 00:13:45;;;;;;;6.05;2.15;;;;;;;;;;5057716;28;20020;-87
2021/10/07 00:16:10;;;;;;;5.28;1.98;;;;;;;;;;5058344;28;20021;-86
2021/10/07 00:18:40;;;;;;;6.20;2.05;;;;;;;;;;5076114;28;20042;-86
2021/10/07 00:21:06;;;;;;;8.45;1.98;;;;;;;;;;5058202;28;20107;-87
2021/10/07 00:23:37;;;;;;;6.18;2.30;;;;;;;;;;5058345;28;20063;-86
2021/10/07 00:26:03;;;;;;;7.53;2.30;;;;;;;;;;5058176;28;20032;-86
2021/10/07 00:28:31;;;;;;;9.70;2.80;;;;;;;;;;5057839;28;20028;-86
2021/10/07 00:30:59;;;;;;;10.90;2.72;;;;;;;;;;5057272;28;20024;-87
2021/10/07 00:33:30;;;;;;;8.45;2.38;;;;;;;;;;5075748;28;20452;-87
2021/10/07 00:36:09;;;;;;;7.63;2.28;;;;;;;;;;5058161;28;20020;-87
2021/10/07 00:41:18;;;;;;;8.45;1.98;;;;;;;;;;5075842;28;20035;-87
2021/10/07 00:43:43;;;;;;;6.38;2.00;;;;;;;;;;5057800;28;20029;-87
2021/10/07 00:46:08;;;;;;;9.68;2.17;;;;;;;;;;5057816;28;20031;-87
2021/10/07 00:48:34;;;;;;;5.43;1.90;;;;;;;;;;5057719;28;20020;-87
2021/10/07 00:50:59;;;;;;;9.35;2.25;;;;;;;;;;5057569;28;20099;-87
2021/10/07 00:53:24;;;;;;;6.88;1.92;;;;;;;;;;5057703;28;20059;-87
2021/10/07 00:55:50;;;;;;;5.90;1.88;;;;;;;;;;5075882;28;20051;-87
2021/10/07 00:58:15;;;;;;;8.65;2.00;;;;;;;;;;5075389;28;20040;-87
2021/10/07 01:00:41;;;;;;;8.27;1.88;;;;;;;;;;5057680;28;20490;-87
2021/10/07 01:03:08;;;;;;;11.10;2.83;;;;;;;;;;5057454;28;20154;-86
2021/10/07 01:05:33;;;;;;;12.70;2.13;;;;;;;;;;5057026;28;20036;-87
2021/10/07 01:07:58;;;;;;;10.15;2.15;;;;;;;;;;5057188;28;20031;-86
2021/10/07 01:10:24;;;;;;;7.93;2.13;;;;;;;;;;5057246;28;20021;-86
2021/10/07 01:12:49;;;;;;;9.27;2.28;;;;;;;;;;5075372;28;20012;-87
2021/10/07 01:15:15;;;;;;;17.42;1.77;;;;;;;;;;5057291;28;20107;-87
2021/10/07 01:17:40;;;;;;;13.15;1.92;;;;;;;;;;5056902;28;20551;-87
2021/10/07 01:20:06;;;;;;;8.93;2.15;;;;;;;;;;5057663;28;20035;-86
2021/10/07 01:22:32;;;;;;;7.28;1.63;;;;;;;;;;5056300;28;20048;-86
2021/10/07 01:24:59;;;;;;;9.98;1.95;;;;;;;;;;5055740;28;20063;-87
2021/10/07 01:27:25;;;;;;;10.88;1.98;;;;;;;;;;5056971;28;20024;-87
2021/10/07 01:30:10;;;;;;;12.90;1.67;;;;;;;;;;5057181;28;20020;-87
2021/10/07 01:32:36;;;;;;;12.57;2.10;;;;;;;;;;5074868;28;20353;-86
2021/10/07 01:35:03;;;;;;;9.93;1.73;;;;;;;;;;5056665;28;20025;-86
2021/10/07 01:37:28;;;;;;;7.85;1.88;;;;;;;;;;5056453;28;20031;-87
2021/10/07 01:39:53;;;;;;;7.15;1.33;;;;;;;;;;5053715;28;20017;-87
2021/10/07 01:42:18;;;;;;;12.48;3.10;;;;;;;;;;5046022;28;20491;-87
2021/10/07 01:44:43;;;;;;;7.47;1.70;;;;;;;;;;5056190;28;20025;-87
2021/10/07 01:47:09;;;;;;;11.10;1.60;;;;;;;;;;5056847;28;20024;-87
2021/10/07 01:49:34;;;;;;;8.45;1.30;;;;;;;;;;5056557;28;20479;-87
2021/10/07 01:51:59;;;;;;;13.27;1.90;;;;;;;;;;5074554;28;20073;-87
2021/10/07 01:54:24;;;;;;;14.45;1.75;;;;;;;;;;5056556;28;20024;-87
2021/10/07 01:56:50;;;;;;;11.07;1.83;;;;;;;;;;5056342;28;20043;-86
2021/10/07 01:59:16;;;;;;;15.88;2.00;;;;;;;;;;5056492;28;20458;-86
2021/10/07 02:01:41;;;;;;;11.52;1.40;;;;;;;;;;5053996;28;20066;-86
2021/10/07 02:04:06;;;;;;;8.15;1.40;;;;;;;;;;5056266;28;20036;-86
2021/10/07 02:06:31;;;;;;;15.90;2.00;;;;;;;;;;5056476;28;20028;-86
2021/10/07 02:08:57;;;;;;;12.85;1.38;;;;;;;;;;5056276;28;20050;-86
2021/10/07 02:11:22;;;;;;;6.90;1.65;;;;;;;;;;5074395;28;20020;-87
2021/10/07 02:13:48;;;;;;;12.38;1.83;;;;;;;;;;5073978;28;20016;-87
2021/10/07 02:16:13;;;;;;;10.38;1.85;;;;;;;;;;5055959;28;20044;-87
2021/10/07 02:18:38;;;;;;;12.02;2.70;;;;;;;;;;5055570;28;20185;-87
2021/10/07 02:21:04;;;;;;;12.90;2.25;;;;;;;;;;5055886;28;20079;-86
2021/10/07 02:23:29;;;;;;;7.43;2.30;;;;;;;;;;5056079;28;20024;-86
2021/10/07 02:25:54;;;;;;;5.50;1.55;;;;;;;;;;5055761;28;20101;-86
2021/10/07 02:28:19;;;;;;;11.98;2.08;;;;;;;;;;5055673;28;20078;-87
2021/10/07 02:30:45;;;;;;;12.30;1.90;;;;;;;;;;5055465;28;20459;-87
2021/10/07 02:33:10;;;;;;;13.55;1.92;;;;;;;;;;5055636;28;20040;-86
2021/10/07 02:35:35;;;;;;;9.43;1.83;;;;;;;;;;5055256;28;20025;-87
2021/10/07 02:38:01;;;;;;;6.97;1.30;;;;;;;;;;5055789;28;20022;-86
2021/10/07 02:40:27;;;;;;;11.48;1.60;;;;;;;;;;5055691;28;20078;-86
2021/10/07 02:42:53;;;;;;;11.07;1.70;;;;;;;;;;5055626;28;20035;-86
2021/10/07 02:45:18;;;;;;;11.38;1.98;;;;;;;;;;5055087;28;20468;-87
2021/10/07 02:47:44;;;;;;;7.80;2.17;;;;;;;;;;5063584;28;20726;-87
2021/10/07 02:50:10;;;;;;;12.20;1.90;;;;;;;;;;5055292;28;20031;-86
2021/10/07 02:52:35;;;;;;;8.23;1.80;;;;;;;;;;5055192;28;20032;-86
2021/10/07 02:55:00;;;;;;;9.55;2.42;;;;;;;;;;5055021;28;20059;-86
2021/10/07 02:57:25;;;;;;;18.65;2.63;;;;;;;;;;5055376;28;20494;-86
2021/10/07 02:59:51;;;;;;;12.07;2.20;;;;;;;;;;5055124;28;20024;-87
2021/10/07 03:02:16;;;;;;;6.07;1.55;;;;;;;;;;5055193;28;20365;-87
2021/10/07 03:04:42;;;;;;;14.20;2.25;;;;;;;;;;5072493;28;20699;-86
2021/10/07 03:07:10;;;;;;;12.98;2.25;;;;;;;;;;5055099;28;20479;-87
2021/10/07 03:09:36;;;;;;;12.07;2.13;;;;;;;;;;5055261;28;20028;-86
2021/10/07 03:12:01;;;;;;;9.45;1.70;;;;;;;;;;5073119;28;20055;-87
2021/10/07 03:14:27;;;;;;;10.02;1.92;;;;;;;;;;5072897;28;20107;-87
2021/10/07 03:16:52;;;;;;;6.15;1.90;;;;;;;;;;5054388;28;20028;-86
2021/10/07 03:19:17;;;;;;;12.10;1.67;;;;;;;;;;5054971;28;20028;-86
2021/10/07 03:21:42;;;;;;;10.27;2.33;;;;;;;;;;5072724;28;20033;-86
2021/10/07 03:24:08;;;;;;;11.68;1.63;;;;;;;;;;5054859;28;20028;-86
2021/10/07 03:26:33;;;;;;;6.65;2.45;;;;;;;;;;5054915;28;20056;-86
2021/10/07 03:28:58;;;;;;;12.15;2.65;;;;;;;;;;5054637;28;20024;-86
2021/10/07 03:31:23;;;;;;;11.70;2.53;;;;;;;;;;5054555;28;20017;-87
2021/10/07 03:33:48;;;;;;;16.95;2.47;;;;;;;;;;5054880;28;20567;-87
2021/10/07 03:36:14;;;;;;;7.47;2.33;;;;;;;;;;5055062;28;20012;-86
2021/10/07 03:38:39;;;;;;;9.18;2.42;;;;;;;;;;5054610;28;20020;-87
2021/10/07 03:41:04;;;;;;;8.27;2.35;;;;;;;;;;5072781;28;20535;-87
2021/10/07 03:43:29;;;;;;;12.27;2.95;;;;;;;;;;5054648;28;20025;-87
2021/10/07 03:45:54;;;;;;;12.45;2.88;;;;;;;;;;5054430;28;20024;-86
2021/10/07 03:48:20;;;;;;;8.73;2.75;;;;;;;;;;5057590;28;20017;-86
2021/10/07 03:50:45;;;;;;;7.22;2.30;;;;;;;;;;5076112;28;20406;-86
2021/10/07 03:53:10;;;;;;;12.10;2.80;;;;;;;;;;5058949;28;20024;-86
2021/10/07 03:55:35;;;;;;;11.77;3.08;;;;;;;;;;5058151;28;20027;-86
2021/10/07 03:58:01;;;;;;;12.52;2.97;;;;;;;;;;5076757;28;20020;-86
2021/10/07 04:00:26;;;;;;;6.65;2.67;;;;;;;;;;5058966;28;20388;-86
2021/10/07 04:02:51;;;;;;;11.98;2.67;;;;;;;;;;5076501;28;20058;-86
2021/10/07 04:05:17;;;;;;;14.30;3.47;;;;;;;;;;5076338;28;20024;-86
2021/10/07 04:07:42;;;;;;;8.82;2.92;;;;;;;;;;5076415;28;20016;-86
2021/10/07 04:10:08;;;;;;;10.95;3.97;;;;;;;;;;5054119;28;20032;-86
2021/10/07 04:12:33;;;;;;;9.75;3.47;;;;;;;;;;5048806;28;20471;-86
2021/10/07 04:14:58;;;;;;;7.90;3.10;;;;;;;;;;5058426;28;20017;-86
2021/10/07 04:17:23;;;;;;;9.75;3.72;;;;;;;;;;5058565;28;20024;-86
2021/10/07 04:19:49;;;;;;;11.60;4.50;;;;;;;;;;5058187;28;20013;-85
2021/10/07 04:22:14;;;;;;;20.38;5.22;;;;;;;;;;5058190;28;20093;-86
2021/10/07 04:24:39;;;;;;;15.18;4.45;;;;;;;;;;5058217;28;20107;-86
2021/10/07 04:27:04;;;;;;;15.98;4.45;;;;;;;;;;5058117;28;20020;-86
2021/10/07 04:29:30;;;;;;;9.45;4.45;;;;;;;;;;5058243;28;20024;-86
2021/10/07 04:31:55;;;;;;;14.57;4.60;;;;;;;;;;5057890;28;20024;-86
2021/10/07 04:34:21;;;;;;;14.23;4.40;;;;;;;;;;5058013;28;20392;-86
2021/10/07 04:36:46;;;;;;;15.95;4.88;;;;;;;;;;5058077;28;20030;-86
2021/10/07 04:39:11;;;;;;;9.18;3.78;;;;;;;;;;5057567;28;20059;-86
2021/10/07 04:41:37;;;;;;;11.13;4.20;;;;;;;;;;5057761;28;20539;-86
2021/10/07 04:44:02;;;;;;;11.93;4.30;;;;;;;;;;5057571;28;20510;-86
2021/10/07 04:46:27;;;;;;;12.57;4.60;;;;;;;;;;5058095;28;20059;-86
2021/10/07 04:48:54;;;;;;;13.05;4.47;;;;;;;;;;5057736;28;20023;-87
2021/10/07 04:51:19;;;;;;;9.25;4.45;;;;;;;;;;5057996;28;20085;-86
2021/10/07 04:53:44;;;;;;;11.02;4.68;;;;;;;;;;5057646;28;20107;-86
2021/10/07 04:56:09;;;;;;;8.18;3.78;;;;;;;;;;5057297;28;20109;-86
2021/10/07 04:58:35;;;;;;;10.30;4.10;;;;;;;;;;5075125;28;20052;-86
2021/10/07 05:01:00;;;;;;;14.18;5.13;;;;;;;;;;5057373;28;20056;-86
2021/10/07 05:03:26;;;;;;;11.55;4.40;;;;;;;;;;5057718;28;20024;-86
2021/10/07 05:05:51;;;;;;;12.77;4.82;;;;;;;;;;5057056;28;20453;-86
2021/10/07 05:08:16;;;;;;;11.20;4.65;;;;;;;;;;5057288;28;20479;-86
2021/10/07 05:10:41;;;;;;;14.93;4.60;;;;;;;;;;5057326;28;20048;-86
2021/10/07 05:13:07;;;;;;;15.05;4.90;;;;;;;;;;5075365;28;20510;-86
2021/10/07 05:15:32;;;;;;;19.70;5.25;;;;;;;;;;5057288;28;20107;-86
2021/10/07 05:17:57;;;;;;;10.35;4.78;;;;;;;;;;5056964;28;20054;-86
2021/10/07 05:20:23;;;;;;;11.00;4.80;;;;;;;;;;5056374;28;20024;-86
2021/10/07 05:22:48;;;;;;;19.15;4.75;;;;;;;;;;5057173;28;20025;-86
2021/10/07 05:25:13;;;;;;;11.98;4.30;;;;;;;;;;5057081;28;20111;-86
2021/10/07 05:27:39;;;;;;;15.20;5.95;;;;;;;;;;5057100;28;20028;-86
2021/10/07 05:30:05;;;;;;;11.10;6.18;;;;;;;;;;5056576;28;20013;-86
2021/10/07 05:32:30;;;;;;;11.20;5.65;;;;;;;;;;5056940;28;20372;-86
2021/10/07 05:34:56;;;;;;;22.42;8.10;;;;;;;;;;5056835;28;20013;-87
2021/10/07 05:37:21;;;;;;;27.20;10.95;;;;;;;;;;5056921;28;20062;-86
2021/10/07 05:39:47;;;;;;;21.90;9.60;;;;;;;;;;5090554;28;20537;-86
2021/10/07 05:42:12;;;;;;;18.98;9.35;;;;;;;;;;5056791;28;20020;-86
2021/10/07 05:44:37;;;;;;;25.75;8.70;;;;;;;;;;5056291;28;20017;-86
2021/10/07 05:47:02;;;;;;;26.98;9.93;;;;;;;;;;5074185;28;20020;-85
2021/10/07 05:49:28;;;;;;;18.15;7.47;;;;;;;;;;5061906;28;20024;-87
2021/10/07 05:51:54;;;;;;;17.45;6.88;;;;;;;;;;5063364;28;20479;-87
2021/10/07 05:54:19;;;;;;;22.58;6.43;;;;;;;;;;5063394;28;20024;-86
2021/10/07 05:56:45;;;;;;;17.30;6.53;;;;;;;;;;5056747;28;20021;-86
2021/10/07 05:59:10;;;;;;;14.30;6.15;;;;;;;;;;5056088;28;20028;-86
2021/10/07 06:01:35;;;;;;;17.20;6.07;;;;;;;;;;5056357;28;20484;-87
2021/10/07 06:04:00;;;;;;;15.48;6.43;;;;;;;;;;5065210;28;20387;-87
2021/10/07 06:06:25;;;;;;;15.65;5.82;;;;;;;;;;5056157;28;20369;-87
2021/10/07 06:08:51;;;;;;;11.93;5.68;;;;;;;;;;5060409;28;20468;-87
2021/10/07 06:11:16;;;;;;;16.33;5.55;;;;;;;;;;5065349;28;20023;-87
2021/10/07 06:13:41;;;;;;;13.18;5.20;;;;;;;;;;5062284;28;20481;-87
2021/10/07 06:16:06;;;;;;;17.80;5.80;;;;;;;;;;5065054;28;20733;-86
2021/10/07 06:18:32;;;;;;;19.67;6.45;;;;;;;;;;5074357;28;20492;-86
2021/10/07 06:20:57;;;;;;;24.52;6.88;;;;;;;;;;5056516;28;20020;-86
2021/10/07 06:23:22;;;;;;;18.67;6.82;;;;;;;;;;5069019;28;20471;-86
2021/10/07 06:25:47;;;;;;;23.48;7.53;;;;;;;;;;5057176;28;20028;-86
2021/10/07 06:28:13;;;;;;;21.92;6.72;;;;;;;;;;5077413;28;20028;-87
2021/10/07 06:30:38;;;;;;;18.92;8.30;;;;;;;;;;5063807;28;20030;-87
2021/10/07 06:33:03;;;;;;;13.38;7.15;;;;;;;;;;5067060;28;20111;-86
2021/10/07 06:35:28;;;;;;;22.77;7.63;;;;;;;;;;5076528;28;20043;-86
2021/10/07 06:37:54;;;;;;;20.00;6.45;;;;;;;;;;5060518;28;20032;-86
2021/10/07 06:40:19;;;;;;;19.17;5.63;;;;;;;;;;5064181;28;20028;-87
2021/10/07 06:42:45;;;;;;;16.13;6.75;;;;;;;;;;5055775;28;20024;-87
2021/10/07 06:45:10;;;;;;;12.15;5.47;;;;;;;;;;5056779;28;20081;-87
2021/10/07 06:47:36;;;;;;;14.88;6.07;;;;;;;;;;5055121;28;20435;-87
2021/10/07 06:50:03;;;;;;;16.95;5.93;;;;;;;;;;5055241;28;20025;-87
2021/10/07 06:52:28;;;;;;;20.17;5.72;;;;;;;;;;5055383;28;20031;-87
2021/10/07 06:54:53;;;;;;;13.93;5.32;;;;;;;;;;5073643;28;20464;-87
2021/10/07 06:57:19;;;;;;;14.93;5.80;;;;;;;;;;5056116;28;20527;-86
2021/10/07 06:59:44;;;;;;;12.05;5.65;;;;;;;;;;5055259;28;20565;-86
2021/10/07 07:02:09;;;;;;;19.38;6.88;;;;;;;;;;5055520;28;20029;-86
2021/10/07 07:04:34;;;;;;;13.63;6.20;;;;;;;;;;5050667;28;20052;-86
2021/10/07 07:07:00;;;;;;;19.77;6.82;;;;;;;;;;5095000;28;20078;-86
2021/10/07 07:09:25;;;;;;;18.05;6.35;;;;;;;;;;5071865;28;20024;-86
2021/10/07 07:11:51;;;;;;;15.65;6.60;;;;;;;;;;5050874;28;20036;-86
2021/10/07 07:14:16;;;;;;;17.17;6.13;;;;;;;;;;5052175;28;20077;-87
2021/10/07 07:16:41;;;;;;;26.10;7.20;;;;;;;;;;5061823;28;20055;-87
2021/10/07 07:19:08;;;;;;;13.13;6.32;;;;;;;;;;5050767;28;20059;-87
2021/10/07 07:21:34;;;;;;;11.68;5.60;;;;;;;;;;5043253;28;20588;-86
2021/10/07 07:24:00;;;;;;;14.63;5.93;;;;;;;;;;5055754;28;20043;-87
2021/10/07 07:26:26;;;;;;;17.60;5.63;;;;;;;;;;5052007;28;20028;-86
2021/10/07 07:28:51;;;;;;;29.40;7.45;;;;;;;;;;5055263;28;20478;-86
2021/10/07 07:31:20;;;;;;;16.52;5.97;;;;;;;;;;5045451;28;20031;-86
2021/10/07 07:33:48;;;;;;;14.07;5.45;;;;;;;;;;5045770;28;20021;-87
2021/10/07 07:36:14;;;;;;;12.18;6.05;;;;;;;;;;5077370;28;20021;-86
2021/10/07 07:38:40;;;;;;;13.30;6.18;;;;;;;;;;5071986;28;20081;-86
2021/10/07 07:41:05;;;;;;;14.63;6.20;;;;;;;;;;5047242;28;20403;-87
2021/10/07 07:43:30;;;;;;;20.80;7.25;;;;;;;;;;5065205;28;20032;-86
2021/10/07 07:45:55;;;;;;;20.73;7.40;;;;;;;;;;5047120;28;20035;-86
2021/10/07 07:48:21;;;;;;;17.23;6.15;;;;;;;;;;5057124;28;20396;-86
2021/10/07 07:50:46;;;;;;;17.55;6.75;;;;;;;;;;5072256;28;20020;-86
2021/10/07 07:53:12;;;;;;;16.65;6.38;;;;;;;;;;5051092;28;20029;-87
2021/10/07 07:55:37;;;;;;;11.65;5.93;;;;;;;;;;5054953;28;20456;-86
2021/10/07 07:58:03;;;;;;;21.90;6.30;;;;;;;;;;5044622;28;20024;-87
2021/10/07 08:00:28;;;;;;;20.83;8.02;;;;;;;;;;5058290;28;20029;-86
2021/10/07 08:02:53;;;;;;;24.90;8.80;;;;;;;;;;5044738;28;20071;-87
2021/10/07 08:05:18;;;;;;;31.58;7.78;;;;;;;;;;5058628;28;20068;-86
2021/10/07 08:07:44;;;;;;;24.30;9.13;;;;;;;;;;5049424;28;20093;-86
2021/10/07 08:10:11;;;;;;;24.27;7.35;;;;;;;;;;5054233;28;20020;-87
2021/10/07 08:12:37;;;;;;;19.38;7.45;;;;;;;;;;5054438;28;20029;-86
2021/10/07 08:15:04;;;;;;;18.02;7.15;;;;;;;;;;5054127;28;20027;-86
2021/10/07 08:17:30;;;;;;;12.82;6.82;;;;;;;;;;5054557;28;20112;-87
2021/10/07 08:19:56;;;;;;;15.73;7.43;;;;;;;;;;5054547;28;20464;-86
2021/10/07 08:22:22;;;;;;;18.77;6.88;;;;;;;;;;5054216;28;20115;-86
2021/10/07 08:24:48;;;;;;;16.33;6.72;;;;;;;;;;5054414;28;20098;-87
2021/10/07 08:27:14;;;;;;;14.07;5.47;;;;;;;;;;5054163;28;20819;-87
2021/10/07 08:29:39;;;;;;;22.10;6.53;;;;;;;;;;5054358;28;20060;-87
2021/10/07 08:32:06;;;;;;;18.98;6.97;;;;;;;;;;5051048;28;20059;-86
2021/10/07 08:34:32;;;;;;;21.48;6.35;;;;;;;;;;5046673;28;20016;-86
2021/10/07 08:36:57;;;;;;;17.30;6.78;;;;;;;;;;5058865;28;20027;-86
2021/10/07 08:39:22;;;;;;;18.40;6.93;;;;;;;;;;5076317;28;20056;-86
2021/10/07 08:41:48;;;;;;;13.88;6.18;;;;;;;;;;5057811;28;20048;-86
2021/10/07 08:44:14;;;;;;;12.85;5.90;;;;;;;;;;5054660;28;20020;-86
2021/10/07 08:46:40;;;;;;;18.13;6.88;;;;;;;;;;5064391;28;20020;-87
2021/10/07 08:49:07;;;;;;;16.95;7.25;;;;;;;;;;5069942;28;20107;-86
2021/10/07 08:51:32;;;;;;;22.52;7.60;;;;;;;;;;5057855;28;20016;-86
2021/10/07 08:53:57;;;;;;;20.67;8.15;;;;;;;;;;5055588;28;20453;-86
2021/10/07 08:56:25;;;;;;;22.77;7.93;;;;;;;;;;5056181;28;20020;-86
2021/10/07 08:58:51;;;;;;;13.93;6.13;;;;;;;;;;5056534;28;20032;-86
2021/10/07 09:01:35;;;;;;;20.05;5.57;;;;;;;;;;5073668;28;20422;-86
2021/10/07 09:04:01;;;;;;;14.05;6.82;;;;;;;;;;5055771;28;20498;-86
2021/10/07 09:06:26;;;;;;;15.43;6.75;;;;;;;;;;5073999;28;20074;-86
2021/10/07 09:08:53;;;;;;;17.23;6.53;;;;;;;;;;5056433;28;20024;-88
2021/10/07 09:11:25;;;;;;;15.63;6.47;;;;;;;;;;5074481;28;20466;-88
2021/10/07 09:13:50;;;;;;;;;;;;;;;;;;5071385;28;20016;-89
2021/10/07 09:16:15;;;;;;;25.58;8.30;;;;;;;;;;5063271;28;19905;-89
2021/10/07 09:18:40;;;;;;;22.98;7.75;;;;;;;;;;5074946;28;20016;-94
2021/10/07 09:21:06;;;;;;;31.75;10.13;;;;;;;;;;5047868;28;20017;-95
2021/10/07 09:23:32;;;;;;;19.13;8.65;;;;;;;;;;5054646;28;21547;-94
2021/10/07 09:25:59;;;;;;;21.45;6.93;;;;;;;;;;5077016;28;20024;-91
2021/10/07 09:28:25;;;;;;;15.65;7.80;;;;;;;;;;5057531;28;20054;-91
2021/10/07 09:30:54;;;;;;;19.13;7.03;;;;;;;;;;5050778;28;20062;-91
2021/10/07 09:33:27;;;;;;;17.73;6.97;;;;;;;;;;5049340;28;20021;-91
2021/10/07 09:36:07;;;;;;;13.93;5.80;;;;;;;;;;5044065;28;20380;-91
2021/10/07 09:38:35;;;;;;;15.25;6.72;;;;;;;;;;5075020;28;20498;-90
2021/10/07 09:41:21;;;;;;;17.55;7.28;;;;;;;;;;5057449;28;20375;-90
2021/10/07 09:43:47;;;;;;;14.10;6.75;;;;;;;;;;5057320;28;20031;-91
2021/10/07 09:46:13;;;;;;;18.98;7.15;;;;;;;;;;5074520;28;20489;-91
2021/10/07 09:48:39;;;;;;;20.65;7.93;;;;;;;;;;5057377;28;20119;-90
2021/10/07 09:51:12;;;;;;;18.67;6.65;;;;;;;;;;5043316;28;20753;-90
2021/10/07 09:53:37;;;;;;;17.25;6.60;;;;;;;;;;5057325;28;20016;-90
2021/10/07 09:56:02;;;;;;;20.08;7.13;;;;;;;;;;5064042;28;20813;-90
2021/10/07 09:58:27;;;;;;;16.60;7.18;;;;;;;;;;5075028;28;20024;-88
2021/10/07 10:00:54;;;;;;;16.73;7.20;;;;;;;;;;5074274;28;20024;-88
2021/10/07 10:03:21;;;;;;;19.80;8.05;;;;;;;;;;5056818;28;20111;-88
2021/10/07 10:05:46;;;;;;;18.35;8.23;;;;;;;;;;5056861;28;20119;-87
2021/10/07 10:08:12;;;;;;;26.85;8.23;;;;;;;;;;5075497;28;20099;-88
2021/10/07 10:10:38;;;;;;;22.35;8.15;;;;;;;;;;5058761;28;20020;-88
2021/10/07 10:13:04;;;;;;;15.10;7.80;;;;;;;;;;5056492;28;20460;-87
2021/10/07 10:15:30;;;;;;;21.48;8.85;;;;;;;;;;5056457;28;20039;-88
2021/10/07 10:17:55;;;;;;;19.23;7.85;;;;;;;;;;5054016;28;20416;-88
2021/10/07 10:20:27;;;;;;;19.60;8.07;;;;;;;;;;5056418;28;20025;-88
2021/10/07 10:23:05;;;;;;;23.08;8.77;;;;;;;;;;5074176;28;20461;-88
2021/10/07 10:25:31;;;;;;;17.33;8.48;;;;;;;;;;5056077;28;20077;-88
2021/10/07 10:28:03;;;;;;;24.83;8.60;;;;;;;;;;5056285;28;20103;-88
2021/10/07 10:30:44;;;;;;;22.23;8.00;;;;;;;;;;5074063;28;20162;-88
2021/10/07 10:33:26;;;;;;;16.65;7.93;;;;;;;;;;5074247;28;20050;-88
2021/10/07 10:35:51;;;;;;;15.10;7.35;;;;;;;;;;5075821;28;20065;-88
2021/10/07 10:38:16;;;;;;;22.73;9.35;;;;;;;;;;5055723;28;20029;-89
2021/10/07 10:40:41;;;;;;;17.27;8.80;;;;;;;;;;5055629;28;20054;-88
2021/10/07 10:43:21;;;;;;;21.92;9.57;;;;;;;;;;5056663;28;20036;-87
2021/10/07 10:45:49;;;;;;;17.58;8.32;;;;;;;;;;5054846;28;20051;-88
2021/10/07 10:48:33;;;;;;;27.13;8.57;;;;;;;;;;5065337;28;20032;-88
2021/10/07 10:51:01;;;;;;;13.13;6.10;;;;;;;;;;5062670;28;20107;-88
2021/10/07 10:53:27;;;;;;;16.30;6.30;;;;;;;;;;5062493;28;20032;-88
2021/10/07 10:55:52;;;;;;;12.88;6.85;;;;;;;;;;5086014;28;20016;-88
2021/10/07 10:58:17;;;;;;;16.80;7.47;;;;;;;;;;5058754;28;20697;-87
2021/10/07 11:00:45;;;;;;;20.45;9.40;;;;;;;;;;5073955;28;20027;-87
2021/10/07 11:03:11;;;;;;;21.73;9.95;;;;;;;;;;5069961;28;20143;-87
2021/10/07 11:06:01;;;;;;;17.60;8.32;;;;;;;;;;5058511;28;20025;-87
2021/10/07 11:08:26;;;;;;;25.92;9.15;;;;;;;;;;5048097;28;20044;-87
2021/10/07 11:10:52;;;;;;;19.98;9.13;;;;;;;;;;5056282;28;20040;-88
2021/10/07 11:13:25;;;;;;;26.73;9.52;;;;;;;;;;5078190;28;20095;-88
2021/10/07 11:15:58;;;;;;;22.90;9.90;;;;;;;;;;5055127;28;20020;-88
2021/10/07 11:18:28;;;;;;;21.90;10.38;;;;;;;;;;5058928;28;20532;-87
2021/10/07 11:21:19;;;;;;;22.63;11.07;;;;;;;;;;5095258;28;20384;-87
2021/10/07 11:23:46;;;;;;;29.30;12.40;;;;;;;;;;5071852;28;20035;-87
2021/10/07 11:26:11;;;;;;;32.50;11.38;;;;;;;;;;5088733;28;20043;-87
2021/10/07 11:28:38;;;;;;;24.55;12.40;;;;;;;;;;5067776;28;20020;-88
2021/10/07 11:31:11;;;;;;;25.20;10.02;;;;;;;;;;5096882;28;20020;-87
2021/10/07 11:33:40;;;;;;;22.40;11.30;;;;;;;;;;5084899;28;20058;-87
2021/10/07 11:36:07;;;;;;;22.45;12.60;;;;;;;;;;5066862;28;20012;-88
2021/10/07 11:38:33;;;;;;;23.30;10.68;;;;;;;;;;5056731;28;20025;-87
2021/10/07 11:40:59;;;;;;;17.52;7.53;;;;;;;;;;5087250;28;20028;-87
2021/10/07 11:43:26;;;;;;;18.15;7.28;;;;;;;;;;5057065;28;20032;-88
2021/10/07 11:45:56;;;;;;;21.77;10.48;;;;;;;;;;5054673;28;20426;-88
2021/10/07 11:48:22;;;;;;;29.58;10.52;;;;;;;;;;5054806;28;20032;-87
2021/10/07 11:50:52;;;;;;;24.42;10.32;;;;;;;;;;5088906;28;20082;-87
2021/10/07 11:53:37;;;;;;;19.27;9.25;;;;;;;;;;5086454;28;20021;-87
2021/10/07 11:56:10;;;;;;;25.25;10.45;;;;;;;;;;5060405;28;20016;-87
2021/10/07 11:58:35;;;;;;;16.30;7.78;;;;;;;;;;5048892;28;20032;-87
2021/10/07 12:01:00;;;;;;;17.77;9.13;;;;;;;;;;5077624;28;20383;-88
2021/10/07 12:03:26;;;;;;;13.13;6.18;;;;;;;;;;5054692;28;20396;-88
2021/10/07 12:05:57;;;;;;;13.98;6.65;;;;;;;;;;5055195;28;20757;-87
2021/10/07 12:08:24;;;;;;;21.58;7.57;;;;;;;;;;5066617;28;20020;-88
2021/10/07 12:10:51;;;;;;;13.23;6.45;;;;;;;;;;5058932;28;20028;-88
2021/10/07 12:13:16;;;;;;;22.40;9.77;;;;;;;;;;5058728;28;20059;-88
2021/10/07 12:15:43;;;;;;;24.52;8.68;;;;;;;;;;5058490;28;20013;-88
2021/10/07 12:18:09;;;;;;;15.30;7.45;;;;;;;;;;5076853;28;20021;-88
2021/10/07 12:20:34;;;;;;;13.65;6.55;;;;;;;;;;5058410;28;20025;-88
2021/10/07 12:23:00;;;;;;;20.50;8.88;;;;;;;;;;5059054;28;20479;-88
2021/10/07 12:25:25;;;;;;;16.55;7.13;;;;;;;;;;5058187;28;20061;-88
2021/10/07 12:27:51;;;;;;;14.98;7.15;;;;;;;;;;5060703;28;20028;-88
2021/10/07 12:30:16;;;;;;;15.77;7.13;;;;;;;;;;5056635;28;20024;-88
2021/10/07 12:32:41;;;;;;;19.52;7.78;;;;;;;;;;5058739;28;20016;-88
2021/10/07 12:35:06;;;;;;;24.30;9.77;;;;;;;;;;5073541;28;20012;-87
2021/10/07 12:37:32;;;;;;;18.77;8.70;;;;;;;;;;5061107;28;20043;-88
2021/10/07 12:39:57;;;;;;;17.88;7.97;;;;;;;;;;5059163;28;20062;-88
2021/10/07 12:42:26;;;;;;;19.02;8.00;;;;;;;;;;5063457;28;20012;-88
2021/10/07 12:44:54;;;;;;;16.10;6.60;;;;;;;;;;5078938;28;20040;-88
2021/10/07 12:47:27;;;;;;;13.23;6.85;;;;;;;;;;5043971;28;20052;-88
2021/10/07 12:49:53;;;;;;;17.52;7.25;;;;;;;;;;5063727;28;20468;-88
2021/10/07 12:52:19;;;;;;;16.23;6.93;;;;;;;;;;5057549;28;20078;-88
2021/10/07 12:54:56;;;;;;;18.33;7.55;;;;;;;;;;5077364;28;20017;-88
2021/10/07 12:57:40;;;;;;;17.45;7.97;;;;;;;;;;5070992;28;20055;-87
2021/10/07 13:00:07;;;;;;;11.68;6.35;;;;;;;;;;5057721;28;20111;-88
2021/10/07 13:02:33;;;;;;;17.52;7.00;;;;;;;;;;5072525;28;20063;-88
2021/10/07 13:05:10;;;;;;;17.23;8.07;;;;;;;;;;5055510;28;20417;-88
2021/10/07 13:07:35;;;;;;;16.85;8.57;;;;;;;;;;5052702;28;20071;-88
2021/10/07 13:10:02;;;;;;;15.85;5.82;;;;;;;;;;5074587;28;20412;-88
2021/10/07 13:12:27;;;;;;;12.80;6.90;;;;;;;;;;5057315;28;20111;-89
2021/10/07 13:14:53;;;;;;;21.15;7.70;;;;;;;;;;5057632;28;20040;-89
2021/10/07 13:17:18;;;;;;;18.73;8.55;;;;;;;;;;5057744;28;20024;-88
2021/10/07 13:19:43;;;;;;;16.17;7.75;;;;;;;;;;5059423;28;20078;-87
2021/10/07 13:22:09;;;;;;;13.50;7.13;;;;;;;;;;5058701;28;20123;-87
2021/10/07 13:24:34;;;;;;;11.68;6.13;;;;;;;;;;5056938;28;20476;-88
2021/10/07 13:27:02;;;;;;;19.13;6.78;;;;;;;;;;5057338;28;20027;-87
2021/10/07 13:29:27;;;;;;;15.70;7.53;;;;;;;;;;5052555;28;20025;-87
2021/10/07 13:31:54;;;;;;;19.70;6.80;;;;;;;;;;5059893;28;20381;-88
2021/10/07 13:34:19;;;;;;;14.23;6.70;;;;;;;;;;5074477;28;20039;-88
2021/10/07 13:36:44;;;;;;;16.70;7.70;;;;;;;;;;5056708;28;20464;-87
2021/10/07 13:39:09;;;;;;;20.15;6.57;;;;;;;;;;5054698;28;20414;-87
2021/10/07 13:41:35;;;;;;;10.63;4.57;;;;;;;;;;5052575;28;20116;-87
2021/10/07 13:44:00;;;;;;;11.43;5.07;;;;;;;;;;5083491;28;20033;-87
2021/10/07 13:46:25;;;;;;;15.10;5.28;;;;;;;;;;5068892;28;20027;-87
2021/10/07 13:48:50;;;;;;;13.43;5.50;;;;;;;;;;5047905;28;20456;-87
2021/10/07 13:51:16;;;;;;;15.05;5.47;;;;;;;;;;5060152;28;20090;-87
2021/10/07 13:53:41;;;;;;;16.77;5.50;;;;;;;;;;5066855;28;20033;-88
2021/10/07 13:56:08;;;;;;;10.93;5.07;;;;;;;;;;5047511;28;20124;-86
2021/10/07 13:58:33;;;;;;;8.07;4.65;;;;;;;;;;5045749;28;20066;-87
2021/10/07 14:00:58;;;;;;;10.82;4.82;;;;;;;;;;5061503;28;20024;-87
2021/10/07 14:03:23;;;;;;;9.07;4.57;;;;;;;;;;5062243;28;20027;-88
2021/10/07 14:05:49;;;;;;;13.68;5.50;;;;;;;;;;5059411;28;20032;-87
2021/10/07 14:08:14;;;;;;;11.07;5.13;;;;;;;;;;5056221;28;20035;-88
2021/10/07 14:10:40;;;;;;;10.80;5.13;;;;;;;;;;5049396;28;20387;-87
2021/10/07 14:13:06;;;;;;;14.45;5.45;;;;;;;;;;5052611;28;20029;-87
2021/10/07 14:15:31;;;;;;;10.40;5.20;;;;;;;;;;5051221;28;20032;-87
2021/10/07 14:17:57;;;;;;;16.65;5.90;;;;;;;;;;5053591;28;20494;-87
2021/10/07 14:20:23;;;;;;;13.52;5.85;;;;;;;;;;5048928;28;20031;-87
2021/10/07 14:22:49;;;;;;;14.20;4.72;;;;;;;;;;5047475;28;20415;-88
2021/10/07 14:25:14;;;;;;;15.05;5.60;;;;;;;;;;5047136;28;20028;-87
2021/10/07 14:27:39;;;;;;;8.35;5.15;;;;;;;;;;5054384;28;20486;-87
2021/10/07 14:30:05;;;;;;;10.00;4.25;;;;;;;;;;5060176;28;20031;-87